sensor_id;sensor_type;location;lat;lon;timestamp;pressure;altitude;pressure_sealevel;temperature;humidity
13456;BME280;6800;50.940;6.940;2023-11-21T00:01:42;100236.22;;;19.13;49.99
13456;BME280;6800;50.940;6.940;2023-11-21T00:05:43;100241.94;;;19.09;49.67
13456;BME280;6800;50.940;6.940;2023-11-21T00:09:45;100239.84;;;19.12;49.66
13456;BME280;6800;50.940;6.940;2023-11-21T00:13:46;100242.56;;;19.03;49.82
13456;BME280;6800;50.940;6.940;2023-11-21T00:17:51;100248.63;;;19.13;49.66
13456;BME280;6800;50.940;6.940;2023-11-21T00:21:52;100236.88;;;19.15;49.73
13456;BME280;6800;50.940;6.940;2023-11-21T00:25:58;100246.06;;;19.21;49.92
13456;BME280;6800;50.940;6.940;2023-11-21T00:29:59;100244.00;;;19.15;49.46
13456;BME280;6800;50.940;6.940;2023-11-21T00:34:02;100252.53;;;19.09;49.37
13456;BME280;6800;50.940;6.940;2023-11-21T00:38:06;100259.41;;;19.19;49.39
13456;BME280;6800;50.940;6.940;2023-11-21T00:42:09;100264.13;;;19.08;49.65
13456;BME280;6800;50.940;6.940;2023-11-21T00:46:11;100258.81;;;19.25;49.02
13456;BME280;6800;50.940;6.940;2023-11-21T00:50:13;100263.63;;;19.30;49.06
13456;BME280;6800;50.940;6.940;2023-11-21T00:54:14;100262.00;;;19.11;49.66
13456;BME280;6800;50.940;6.940;2023-11-21T00:58:18;100263.00;;;19.10;49.49
13456;BME280;6800;50.940;6.940;2023-11-21T01:02:19;100266.94;;;19.06;48.91
13456;BME280;6800;50.940;6.940;2023-11-21T01:06:21;100271.88;;;18.92;49.25
13456;BME280;6800;50.940;6.940;2023-11-21T01:10:22;100271.38;;;18.88;49.39
13456;BME280;6800;50.940;6.940;2023-11-21T01:14:23;100278.00;;;18.75;49.68
13456;BME280;6800;50.940;6.940;2023-11-21T01:18:27;100286.22;;;18.72;49.73
13456;BME280;6800;50.940;6.940;2023-11-21T01:22:30;100290.44;;;18.64;50.18
13456;BME280;6800;50.940;6.940;2023-11-21T01:26:31;100301.00;;;18.64;50.20
13456;BME280;6800;50.940;6.940;2023-11-21T01:30:33;100299.22;;;18.65;50.44
13456;BME280;6800;50.940;6.940;2023-11-21T01:34:34;100307.22;;;18.73;50.40
13456;BME280;6800;50.940;6.940;2023-11-21T01:38:35;100307.16;;;18.65;50.67
13456;BME280;6800;50.940;6.940;2023-11-21T01:42:37;100301.59;;;18.86;50.12
13456;BME280;6800;50.940;6.940;2023-11-21T01:46:38;100311.88;;;18.89;49.85
13456;BME280;6800;50.940;6.940;2023-11-21T01:50:41;100305.38;;;18.83;49.96
13456;BME280;6800;50.940;6.940;2023-11-21T01:54:42;100316.94;;;18.82;49.94
13456;BME280;6800;50.940;6.940;2023-11-21T01:58:44;100320.88;;;18.68;50.02
13456;BME280;6800;50.940;6.940;2023-11-21T02:02:48;100313.06;;;18.49;50.23
13456;BME280;6800;50.940;6.940;2023-11-21T02:06:50;100318.81;;;18.35;50.86
13456;BME280;6800;50.940;6.940;2023-11-21T02:10:52;100320.50;;;18.36;50.90
13456;BME280;6800;50.940;6.940;2023-11-21T02:14:53;100333.69;;;18.36;50.65
13456;BME280;6800;50.940;6.940;2023-11-21T02:18:58;100338.97;;;18.46;50.59
13456;BME280;6800;50.940;6.940;2023-11-21T02:23:00;100336.72;;;18.41;50.51
13456;BME280;6800;50.940;6.940;2023-11-21T02:27:02;100341.84;;;18.52;50.47
13456;BME280;6800;50.940;6.940;2023-11-21T02:31:04;100350.47;;;18.54;50.35
13456;BME280;6800;50.940;6.940;2023-11-21T02:35:06;100345.09;;;18.74;50.28
13456;BME280;6800;50.940;6.940;2023-11-21T02:39:10;100353.88;;;18.74;50.37
13456;BME280;6800;50.940;6.940;2023-11-21T02:43:11;100354.72;;;18.75;50.07
13456;BME280;6800;50.940;6.940;2023-11-21T02:47:12;100350.22;;;18.75;50.14
13456;BME280;6800;50.940;6.940;2023-11-21T02:51:14;100352.06;;;18.75;50.26
13456;BME280;6800;50.940;6.940;2023-11-21T02:55:16;100349.94;;;18.78;50.48
13456;BME280;6800;50.940;6.940;2023-11-21T02:59:18;100355.66;;;19.01;50.09
13456;BME280;6800;50.940;6.940;2023-11-21T03:03:20;100354.81;;;19.00;50.50
13456;BME280;6800;50.940;6.940;2023-11-21T03:07:22;100349.31;;;18.94;50.06
13456;BME280;6800;50.940;6.940;2023-11-21T03:11:23;100359.28;;;19.00;49.60
13456;BME280;6800;50.940;6.940;2023-11-21T03:15:24;100363.78;;;18.90;50.06
13456;BME280;6800;50.940;6.940;2023-11-21T03:19:26;100369.56;;;19.03;50.04
13456;BME280;6800;50.940;6.940;2023-11-21T03:23:27;100373.31;;;18.83;50.30
13456;BME280;6800;50.940;6.940;2023-11-21T03:27:28;100385.09;;;18.88;50.03
13456;BME280;6800;50.940;6.940;2023-11-21T03:31:30;100385.63;;;18.92;49.86
13456;BME280;6800;50.940;6.940;2023-11-21T03:35:31;100384.66;;;18.93;49.83
13456;BME280;6800;50.940;6.940;2023-11-21T03:39:33;100385.22;;;19.14;49.62
13456;BME280;6800;50.940;6.940;2023-11-21T03:43:36;100392.50;;;18.85;49.74
13456;BME280;6800;50.940;6.940;2023-11-21T03:47:38;100395.59;;;18.80;49.81
13456;BME280;6800;50.940;6.940;2023-11-21T03:51:39;100401.81;;;18.89;49.85
13456;BME280;6800;50.940;6.940;2023-11-21T03:55:40;100413.16;;;18.72;49.98
13456;BME280;6800;50.940;6.940;2023-11-21T03:59:43;100412.28;;;18.53;50.79
13456;BME280;6800;50.940;6.940;2023-11-21T04:03:44;100415.13;;;18.69;50.32
13456;BME280;6800;50.940;6.940;2023-11-21T04:07:46;100421.50;;;18.77;49.73
13456;BME280;6800;50.940;6.940;2023-11-21T04:11:47;100426.06;;;18.84;49.65
13456;BME280;6800;50.940;6.940;2023-11-21T04:15:49;100423.06;;;18.69;49.93
13456;BME280;6800;50.940;6.940;2023-11-21T04:19:50;100442.94;;;18.74;49.27
13456;BME280;6800;50.940;6.940;2023-11-21T04:23:52;100434.22;;;18.63;49.71
13456;BME280;6800;50.940;6.940;2023-11-21T04:27:53;100436.44;;;18.68;49.93
13456;BME280;6800;50.940;6.940;2023-11-21T04:31:55;100431.53;;;18.73;49.66
13456;BME280;6800;50.940;6.940;2023-11-21T04:35:56;100437.97;;;18.61;49.87
13456;BME280;6800;50.940;6.940;2023-11-21T04:39:58;100431.19;;;18.39;50.37
13456;BME280;6800;50.940;6.940;2023-11-21T04:43:59;100439.41;;;18.55;50.53
13456;BME280;6800;50.940;6.940;2023-11-21T04:48:04;100438.28;;;18.48;50.20
13456;BME280;6800;50.940;6.940;2023-11-21T04:52:06;100441.22;;;18.45;50.49
13456;BME280;6800;50.940;6.940;2023-11-21T04:56:09;100446.50;;;18.55;50.33
13456;BME280;6800;50.940;6.940;2023-11-21T05:00:10;100440.25;;;18.46;50.04
13456;BME280;6800;50.940;6.940;2023-11-21T05:04:12;100450.00;;;18.36;50.43
13456;BME280;6800;50.940;6.940;2023-11-21T05:08:16;100451.63;;;18.37;50.37
13456;BME280;6800;50.940;6.940;2023-11-21T05:12:17;100458.31;;;18.41;50.24
13456;BME280;6800;50.940;6.940;2023-11-21T05:16:21;100462.22;;;18.37;50.19
13456;BME280;6800;50.940;6.940;2023-11-21T05:20:23;100465.38;;;18.41;50.38
13456;BME280;6800;50.940;6.940;2023-11-21T05:24:25;100466.53;;;18.38;50.05
13456;BME280;6800;50.940;6.940;2023-11-21T05:28:26;100473.63;;;18.47;50.40
13456;BME280;6800;50.940;6.940;2023-11-21T05:32:27;100484.75;;;18.51;50.28
13456;BME280;6800;50.940;6.940;2023-11-21T05:36:29;100486.41;;;18.52;50.09
13456;BME280;6800;50.940;6.940;2023-11-21T05:40:30;100490.75;;;18.53;50.37
13456;BME280;6800;50.940;6.940;2023-11-21T05:44:32;100497.28;;;18.49;50.38
13456;BME280;6800;50.940;6.940;2023-11-21T05:48:33;100494.34;;;18.61;50.33
13456;BME280;6800;50.940;6.940;2023-11-21T05:52:34;100507.03;;;18.48;50.25
13456;BME280;6800;50.940;6.940;2023-11-21T05:56:36;100508.56;;;18.51;50.24
13456;BME280;6800;50.940;6.940;2023-11-21T06:00:37;100522.03;;;18.48;49.71
13456;BME280;6800;50.940;6.940;2023-11-21T06:04:38;100529.97;;;18.48;50.24
13456;BME280;6800;50.940;6.940;2023-11-21T06:08:40;100528.16;;;18.48;50.37
13456;BME280;6800;50.940;6.940;2023-11-21T06:12:41;100539.84;;;18.55;50.06
13456;BME280;6800;50.940;6.940;2023-11-21T06:16:44;100543.72;;;18.32;50.28
13456;BME280;6800;50.940;6.940;2023-11-21T06:20:46;100549.88;;;18.52;49.95
13456;BME280;6800;50.940;6.940;2023-11-21T06:24:48;100554.88;;;18.45;50.11
13456;BME280;6800;50.940;6.940;2023-11-21T06:28:49;100555.72;;;18.55;49.79
13456;BME280;6800;50.940;6.940;2023-11-21T06:32:52;100558.63;;;18.52;49.90
13456;BME280;6800;50.940;6.940;2023-11-21T06:36:54;100563.06;;;18.42;50.24
13456;BME280;6800;50.940;6.940;2023-11-21T06:40:56;100561.16;;;18.44;50.22
13456;BME280;6800;50.940;6.940;2023-11-21T06:44:59;100563.06;;;18.42;50.61
13456;BME280;6800;50.940;6.940;2023-11-21T06:49:04;100580.19;;;18.38;50.36
13456;BME280;6800;50.940;6.940;2023-11-21T06:53:08;100594.38;;;18.37;50.36
13456;BME280;6800;50.940;6.940;2023-11-21T06:57:11;100589.66;;;18.50;50.42
13456;BME280;6800;50.940;6.940;2023-11-21T07:01:13;100591.16;;;18.43;50.37
13456;BME280;6800;50.940;6.940;2023-11-21T07:05:14;100599.22;;;18.42;50.23
13456;BME280;6800;50.940;6.940;2023-11-21T07:09:16;100612.22;;;18.54;50.53
13456;BME280;6800;50.940;6.940;2023-11-21T07:13:18;100622.09;;;18.52;50.04
13456;BME280;6800;50.940;6.940;2023-11-21T07:17:19;100626.13;;;18.56;50.39
13456;BME280;6800;50.940;6.940;2023-11-21T07:21:20;100635.88;;;18.46;50.20
13456;BME280;6800;50.940;6.940;2023-11-21T07:25:22;100643.81;;;18.65;50.25
13456;BME280;6800;50.940;6.940;2023-11-21T07:29:27;100642.25;;;18.82;49.96
13456;BME280;6800;50.940;6.940;2023-11-21T07:33:35;100664.53;;;18.80;49.84
13456;BME280;6800;50.940;6.940;2023-11-21T07:37:42;100658.97;;;18.83;49.76
13456;BME280;6800;50.940;6.940;2023-11-21T07:41:44;100661.47;;;18.84;49.94
13456;BME280;6800;50.940;6.940;2023-11-21T07:45:49;100668.53;;;19.03;49.46
13456;BME280;6800;50.940;6.940;2023-11-21T07:49:50;100664.66;;;18.97;49.38
13456;BME280;6800;50.940;6.940;2023-11-21T07:53:52;100668.97;;;18.98;49.98
13456;BME280;6800;50.940;6.940;2023-11-21T07:57:53;100668.13;;;18.88;49.78
13456;BME280;6800;50.940;6.940;2023-11-21T08:01:55;100678.16;;;18.94;50.08
13456;BME280;6800;50.940;6.940;2023-11-21T08:05:57;100679.81;;;19.14;49.13
13456;BME280;6800;50.940;6.940;2023-11-21T08:09:58;100692.63;;;19.19;49.09
13456;BME280;6800;50.940;6.940;2023-11-21T08:14:00;100680.38;;;19.08;49.43
13456;BME280;6800;50.940;6.940;2023-11-21T08:18:06;100693.75;;;19.16;49.39
13456;BME280;6800;50.940;6.940;2023-11-21T08:22:08;100698.19;;;19.25;49.15
13456;BME280;6800;50.940;6.940;2023-11-21T08:26:10;100714.75;;;19.47;48.70
13456;BME280;6800;50.940;6.940;2023-11-21T08:30:12;100720.19;;;19.45;48.59
13456;BME280;6800;50.940;6.940;2023-11-21T08:34:15;100729.38;;;19.41;48.78
13456;BME280;6800;50.940;6.940;2023-11-21T08:38:17;100736.91;;;19.45;49.38
13456;BME280;6800;50.940;6.940;2023-11-21T08:42:19;100734.84;;;19.39;48.96
13456;BME280;6800;50.940;6.940;2023-11-21T08:46:20;100740.78;;;19.51;48.81
13456;BME280;6800;50.940;6.940;2023-11-21T08:50:22;100741.19;;;19.56;48.74
13456;BME280;6800;50.940;6.940;2023-11-21T08:54:24;100751.78;;;19.56;48.30
13456;BME280;6800;50.940;6.940;2023-11-21T08:58:26;100750.84;;;19.57;47.64
13456;BME280;6800;50.940;6.940;2023-11-21T09:02:28;100759.75;;;19.27;48.71
13456;BME280;6800;50.940;6.940;2023-11-21T09:06:29;100762.38;;;19.56;48.34
13456;BME280;6800;50.940;6.940;2023-11-21T09:10:31;100760.47;;;19.49;47.85
13456;BME280;6800;50.940;6.940;2023-11-21T09:14:33;100751.31;;;19.80;47.48
13456;BME280;6800;50.940;6.940;2023-11-21T09:18:35;100755.72;;;19.52;48.43
13456;BME280;6800;50.940;6.940;2023-11-21T09:22:36;100765.72;;;19.68;47.89
13456;BME280;6800;50.940;6.940;2023-11-21T09:26:39;100775.84;;;19.82;47.82
13456;BME280;6800;50.940;6.940;2023-11-21T09:30:41;100784.34;;;19.85;48.02
13456;BME280;6800;50.940;6.940;2023-11-21T09:34:45;100789.53;;;19.77;47.80
13456;BME280;6800;50.940;6.940;2023-11-21T09:38:46;100798.41;;;19.95;47.92
13456;BME280;6800;50.940;6.940;2023-11-21T09:42:55;100807.22;;;19.86;47.72
13456;BME280;6800;50.940;6.940;2023-11-21T09:46:59;100810.25;;;20.01;47.21
13456;BME280;6800;50.940;6.940;2023-11-21T09:51:01;100806.22;;;19.97;47.52
13456;BME280;6800;50.940;6.940;2023-11-21T09:55:05;100826.03;;;19.83;47.54
13456;BME280;6800;50.940;6.940;2023-11-21T09:59:07;100814.44;;;19.94;47.42
13456;BME280;6800;50.940;6.940;2023-11-21T10:03:11;100821.00;;;19.99;47.45
13456;BME280;6800;50.940;6.940;2023-11-21T10:07:16;100814.47;;;19.84;47.95
13456;BME280;6800;50.940;6.940;2023-11-21T10:11:19;100810.81;;;19.95;47.61
13456;BME280;6800;50.940;6.940;2023-11-21T10:15:23;100803.88;;;20.31;46.60
13456;BME280;6800;50.940;6.940;2023-11-21T10:19:28;100815.94;;;20.25;46.60
13456;BME280;6800;50.940;6.940;2023-11-21T10:23:30;100819.06;;;19.92;47.18
13456;BME280;6800;50.940;6.940;2023-11-21T10:27:31;100815.13;;;19.96;46.99
13456;BME280;6800;50.940;6.940;2023-11-21T10:31:33;100815.75;;;19.80;47.56
13456;BME280;6800;50.940;6.940;2023-11-21T10:35:44;100817.66;;;19.97;47.14
13456;BME280;6800;50.940;6.940;2023-11-21T10:39:57;100823.66;;;19.90;47.21
13456;BME280;6800;50.940;6.940;2023-11-21T10:43:58;100822.91;;;20.16;46.69
13456;BME280;6800;50.940;6.940;2023-11-21T10:48:00;100826.66;;;20.14;47.08
13456;BME280;6800;50.940;6.940;2023-11-21T10:52:02;100829.81;;;20.37;46.95
13456;BME280;6800;50.940;6.940;2023-11-21T10:56:06;100824.50;;;20.46;46.26
13456;BME280;6800;50.940;6.940;2023-11-21T11:00:09;100839.50;;;20.55;45.95
13456;BME280;6800;50.940;6.940;2023-11-21T11:04:15;100837.84;;;20.54;45.85
13456;BME280;6800;50.940;6.940;2023-11-21T11:08:18;100845.75;;;20.17;46.46
13456;BME280;6800;50.940;6.940;2023-11-21T11:12:24;100849.72;;;20.23;46.46
13456;BME280;6800;50.940;6.940;2023-11-21T11:16:27;100847.41;;;20.38;46.32
13456;BME280;6800;50.940;6.940;2023-11-21T11:20:33;100848.22;;;20.38;46.59
13456;BME280;6800;50.940;6.940;2023-11-21T11:37:31;100845.13;;;20.43;46.60
13456;BME280;6800;50.940;6.940;2023-11-21T11:41:32;100848.63;;;20.43;46.49
13456;BME280;6800;50.940;6.940;2023-11-21T11:45:35;100841.69;;;20.42;46.79
13456;BME280;6800;50.940;6.940;2023-11-21T11:49:38;100849.63;;;20.42;46.99
13456;BME280;6800;50.940;6.940;2023-11-21T11:53:55;100854.44;;;20.10;47.38
13456;BME280;6800;50.940;6.940;2023-11-21T11:57:58;100870.91;;;20.60;46.38
13456;BME280;6800;50.940;6.940;2023-11-21T12:01:59;100860.97;;;20.89;45.72
13456;BME280;6800;50.940;6.940;2023-11-21T12:06:01;100859.50;;;21.04;45.22
13456;BME280;6800;50.940;6.940;2023-11-21T12:10:03;100866.38;;;20.97;44.95
13456;BME280;6800;50.940;6.940;2023-11-21T12:14:06;100869.09;;;20.51;46.35
13456;BME280;6800;50.940;6.940;2023-11-21T12:18:08;100876.00;;;20.34;46.93
13456;BME280;6800;50.940;6.940;2023-11-21T12:22:10;100880.81;;;20.58;46.21
13456;BME280;6800;50.940;6.940;2023-11-21T12:26:12;100881.69;;;20.49;46.22
13456;BME280;6800;50.940;6.940;2023-11-21T12:30:14;100890.47;;;20.59;46.15
13456;BME280;6800;50.940;6.940;2023-11-21T12:34:16;100887.44;;;20.44;46.34
13456;BME280;6800;50.940;6.940;2023-11-21T12:38:19;100899.78;;;20.16;47.08
13456;BME280;6800;50.940;6.940;2023-11-21T12:42:20;100898.53;;;20.20;46.89
13456;BME280;6800;50.940;6.940;2023-11-21T12:46:22;100898.53;;;19.25;49.47
13456;BME280;6800;50.940;6.940;2023-11-21T12:50:25;100903.44;;;19.39;49.46
13456;BME280;6800;50.940;6.940;2023-11-21T12:54:29;100898.06;;;18.70;51.15
13456;BME280;6800;50.940;6.940;2023-11-21T12:58:31;100907.75;;;19.50;49.92
13456;BME280;6800;50.940;6.940;2023-11-21T13:02:36;100913.03;;;20.07;47.53
13456;BME280;6800;50.940;6.940;2023-11-21T13:06:39;100908.31;;;20.01;47.22
13456;BME280;6800;50.940;6.940;2023-11-21T13:10:44;100911.50;;;20.23;47.19
13456;BME280;6800;50.940;6.940;2023-11-21T13:14:47;100907.47;;;20.10;46.89
13456;BME280;6800;50.940;6.940;2023-11-21T13:18:49;100911.00;;;20.47;46.07
13456;BME280;6800;50.940;6.940;2023-11-21T13:22:51;100916.47;;;20.36;46.34
13456;BME280;6800;50.940;6.940;2023-11-21T13:26:55;100932.53;;;20.44;45.82
13456;BME280;6800;50.940;6.940;2023-11-21T13:30:57;100926.38;;;20.80;45.03
13456;BME280;6800;50.940;6.940;2023-11-21T13:34:59;100930.59;;;20.37;46.11
13456;BME280;6800;50.940;6.940;2023-11-21T13:39:01;100925.47;;;20.62;45.71
13456;BME280;6800;50.940;6.940;2023-11-21T13:43:09;100939.59;;;20.53;46.20
13456;BME280;6800;50.940;6.940;2023-11-21T13:47:11;100942.00;;;20.83;45.58
13456;BME280;6800;50.940;6.940;2023-11-21T13:51:12;100947.19;;;20.48;45.21
13456;BME280;6800;50.940;6.940;2023-11-21T13:55:21;100950.38;;;20.52;45.27
13456;BME280;6800;50.940;6.940;2023-11-21T13:59:26;100955.41;;;20.45;45.39
13456;BME280;6800;50.940;6.940;2023-11-21T14:03:29;100962.09;;;20.59;45.33
13456;BME280;6800;50.940;6.940;2023-11-21T14:07:39;100967.59;;;20.29;45.90
13456;BME280;6800;50.940;6.940;2023-11-21T14:11:40;100968.47;;;20.66;45.05
13456;BME280;6800;50.940;6.940;2023-11-21T14:15:49;100963.91;;;20.58;44.93
13456;BME280;6800;50.940;6.940;2023-11-21T14:19:53;100962.19;;;20.67;45.43
13456;BME280;6800;50.940;6.940;2023-11-21T14:23:57;100962.25;;;20.48;45.55
13456;BME280;6800;50.940;6.940;2023-11-21T14:27:59;100965.75;;;20.19;45.81
13456;BME280;6800;50.940;6.940;2023-11-21T14:32:00;100971.66;;;20.23;46.15
13456;BME280;6800;50.940;6.940;2023-11-21T14:36:02;100974.97;;;20.44;45.61
13456;BME280;6800;50.940;6.940;2023-11-21T14:40:04;100987.22;;;20.55;45.48
13456;BME280;6800;50.940;6.940;2023-11-21T14:44:08;100981.03;;;20.64;45.43
13456;BME280;6800;50.940;6.940;2023-11-21T14:48:13;100983.59;;;20.56;45.56
13456;BME280;6800;50.940;6.940;2023-11-21T14:52:21;100985.97;;;20.49;45.88
13456;BME280;6800;50.940;6.940;2023-11-21T14:56:34;100987.53;;;20.33;46.48
13456;BME280;6800;50.940;6.940;2023-11-21T15:00:36;100995.63;;;20.41;46.10
13456;BME280;6800;50.940;6.940;2023-11-21T15:04:37;100998.16;;;20.42;46.20
13456;BME280;6800;50.940;6.940;2023-11-21T15:08:40;101008.72;;;20.52;46.35
13456;BME280;6800;50.940;6.940;2023-11-21T15:12:44;101023.41;;;20.46;46.56
13456;BME280;6800;50.940;6.940;2023-11-21T15:16:46;101021.75;;;20.26;48.08
13456;BME280;6800;50.940;6.940;2023-11-21T15:20:52;101018.94;;;20.18;48.00
13456;BME280;6800;50.940;6.940;2023-11-21T15:24:53;101028.81;;;19.87;48.82
13456;BME280;6800;50.940;6.940;2023-11-21T15:28:55;101042.38;;;20.03;49.50
13456;BME280;6800;50.940;6.940;2023-11-21T15:32:58;101045.44;;;19.99;49.30
13456;BME280;6800;50.940;6.940;2023-11-21T15:37:01;101057.53;;;19.82;49.95
13456;BME280;6800;50.940;6.940;2023-11-21T15:41:03;101061.19;;;20.00;49.46
13456;BME280;6800;50.940;6.940;2023-11-21T15:45:04;101064.50;;;19.83;50.08
13456;BME280;6800;50.940;6.940;2023-11-21T15:49:10;101075.13;;;19.93;50.27
13456;BME280;6800;50.940;6.940;2023-11-21T15:53:13;101075.66;;;19.77;50.36
13456;BME280;6800;50.940;6.940;2023-11-21T15:57:16;101074.56;;;19.89;49.96
13456;BME280;6800;50.940;6.940;2023-11-21T16:01:23;101074.41;;;19.72;50.43
13456;BME280;6800;50.940;6.940;2023-11-21T16:05:24;101081.50;;;19.71;50.60
13456;BME280;6800;50.940;6.940;2023-11-21T16:09:27;101080.13;;;18.65;53.08
13456;BME280;6800;50.940;6.940;2023-11-21T16:13:32;101084.53;;;19.57;50.55
13456;BME280;6800;50.940;6.940;2023-11-21T16:17:44;101093.72;;;19.53;51.04
13456;BME280;6800;50.940;6.940;2023-11-21T16:21:54;101109.22;;;18.86;52.67
13456;BME280;6800;50.940;6.940;2023-11-21T16:26:01;101113.72;;;19.16;51.61
13456;BME280;6800;50.940;6.940;2023-11-21T16:30:08;101116.06;;;18.68;52.50
13456;BME280;6800;50.940;6.940;2023-11-21T16:34:33;101133.03;;;18.65;52.45
13456;BME280;6800;50.940;6.940;2023-11-21T16:38:35;101128.53;;;18.98;51.25
13456;BME280;6800;50.940;6.940;2023-11-21T16:42:36;101134.41;;;19.52;49.52
13456;BME280;6800;50.940;6.940;2023-11-21T16:46:39;101144.00;;;19.23;50.31
13456;BME280;6800;50.940;6.940;2023-11-21T16:50:43;101158.56;;;18.55;51.58
13456;BME280;6800;50.940;6.940;2023-11-21T16:54:45;101155.44;;;19.54;49.70
13456;BME280;6800;50.940;6.940;2023-11-21T16:58:46;101160.09;;;19.61;49.20
13456;BME280;6800;50.940;6.940;2023-11-21T17:02:48;101174.69;;;19.56;49.10
13456;BME280;6800;50.940;6.940;2023-11-21T17:06:50;101180.97;;;19.55;49.22
13456;BME280;6800;50.940;6.940;2023-11-21T17:10:51;101191.03;;;19.61;48.97
13456;BME280;6800;50.940;6.940;2023-11-21T17:14:54;101195.00;;;19.45;48.91
13456;BME280;6800;50.940;6.940;2023-11-21T17:18:56;101203.41;;;19.51;49.04
13456;BME280;6800;50.940;6.940;2023-11-21T17:22:57;101205.22;;;19.50;48.48
13456;BME280;6800;50.940;6.940;2023-11-21T17:26:59;101214.25;;;19.48;48.85
13456;BME280;6800;50.940;6.940;2023-11-21T17:31:00;101219.44;;;19.17;49.02
13456;BME280;6800;50.940;6.940;2023-11-21T17:35:02;101237.53;;;19.12;49.04
13456;BME280;6800;50.940;6.940;2023-11-21T17:39:03;101253.66;;;19.09;48.77
13456;BME280;6800;50.940;6.940;2023-11-21T17:43:10;101253.16;;;19.15;48.53
13456;BME280;6800;50.940;6.940;2023-11-21T17:47:11;101253.00;;;18.64;49.73
13456;BME280;6800;50.940;6.940;2023-11-21T17:51:13;101277.06;;;18.50;49.32
13456;BME280;6800;50.940;6.940;2023-11-21T17:55:15;101288.47;;;18.18;50.43
13456;BME280;6800;50.940;6.940;2023-11-21T17:59:17;101278.50;;;18.54;49.62
13456;BME280;6800;50.940;6.940;2023-11-21T18:03:18;101300.25;;;18.58;49.23
13456;BME280;6800;50.940;6.940;2023-11-21T18:07:20;101297.16;;;16.93;53.46
13456;BME280;6800;50.940;6.940;2023-11-21T18:11:21;101308.47;;;17.65;51.44
13456;BME280;6800;50.940;6.940;2023-11-21T18:15:22;101317.50;;;17.73;51.23
13456;BME280;6800;50.940;6.940;2023-11-21T18:19:24;101325.25;;;17.53;51.85
13456;BME280;6800;50.940;6.940;2023-11-21T18:23:25;101346.72;;;15.51;54.65
13456;BME280;6800;50.940;6.940;2023-11-21T18:27:27;101341.44;;;16.65;52.92
13456;BME280;6800;50.940;6.940;2023-11-21T18:31:28;101345.72;;;16.04;53.65
13456;BME280;6800;50.940;6.940;2023-11-21T18:35:30;101351.19;;;16.39;52.97
13456;BME280;6800;50.940;6.940;2023-11-21T18:39:32;101364.44;;;17.23;49.88
13456;BME280;6800;50.940;6.940;2023-11-21T18:43:33;101371.50;;;17.46;50.25
13456;BME280;6800;50.940;6.940;2023-11-21T18:47:35;101393.84;;;15.54;53.54
13456;BME280;6800;50.940;6.940;2023-11-21T18:51:36;101405.56;;;16.27;51.60
13456;BME280;6800;50.940;6.940;2023-11-21T18:55:38;101419.97;;;14.76;54.12
13456;BME280;6800;50.940;6.940;2023-11-21T18:59:39;101415.19;;;15.23;52.97
13456;BME280;6800;50.940;6.940;2023-11-21T19:03:42;101432.41;;;15.55;52.05
13456;BME280;6800;50.940;6.940;2023-11-21T19:07:44;101442.16;;;15.27;51.90
13456;BME280;6800;50.940;6.940;2023-11-21T19:11:45;101433.50;;;16.30;48.18
13456;BME280;6800;50.940;6.940;2023-11-21T19:15:48;101452.94;;;15.90;48.80
13456;BME280;6800;50.940;6.940;2023-11-21T19:19:50;101468.38;;;15.55;49.72
13456;BME280;6800;50.940;6.940;2023-11-21T19:23:51;101476.81;;;15.19;50.53
13456;BME280;6800;50.940;6.940;2023-11-21T19:27:53;101469.22;;;15.82;48.50
13456;BME280;6800;50.940;6.940;2023-11-21T19:31:54;101478.91;;;15.00;50.04
13456;BME280;6800;50.940;6.940;2023-11-21T19:35:56;101493.00;;;14.57;51.46
13456;BME280;6800;50.940;6.940;2023-11-21T19:39:57;101491.53;;;16.16;47.99
13456;BME280;6800;50.940;6.940;2023-11-21T19:44:02;101494.22;;;15.63;48.75
13456;BME280;6800;50.940;6.940;2023-11-21T19:48:04;101507.59;;;15.31;49.88
13456;BME280;6800;50.940;6.940;2023-11-21T19:52:06;101501.34;;;14.63;50.97
13456;BME280;6800;50.940;6.940;2023-11-21T19:56:08;101493.00;;;14.85;50.52
13456;BME280;6800;50.940;6.940;2023-11-21T20:00:12;101505.97;;;14.30;51.42
13456;BME280;6800;50.940;6.940;2023-11-21T20:04:15;101504.41;;;15.81;48.69
13456;BME280;6800;50.940;6.940;2023-11-21T20:08:17;101516.78;;;15.67;48.50
13456;BME280;6800;50.940;6.940;2023-11-21T20:12:18;101525.06;;;15.46;49.16
13456;BME280;6800;50.940;6.940;2023-11-21T20:16:20;101528.28;;;15.51;49.51
13456;BME280;6800;50.940;6.940;2023-11-21T20:20:21;101539.19;;;14.31;50.37
13456;BME280;6800;50.940;6.940;2023-11-21T20:24:23;101547.06;;;14.61;49.66
13456;BME280;6800;50.940;6.940;2023-11-21T20:28:25;101559.63;;;15.69;47.92
13456;BME280;6800;50.940;6.940;2023-11-21T20:32:27;101567.34;;;16.89;45.33
13456;BME280;6800;50.940;6.940;2023-11-21T20:36:28;101574.56;;;15.95;47.15
13456;BME280;6800;50.940;6.940;2023-11-21T20:40:30;101578.16;;;15.94;47.58
13456;BME280;6800;50.940;6.940;2023-11-21T20:44:32;101581.53;;;14.55;49.98
13456;BME280;6800;50.940;6.940;2023-11-21T20:48:33;101589.44;;;13.94;51.21
13456;BME280;6800;50.940;6.940;2023-11-21T20:52:37;101600.91;;;14.68;48.99
13456;BME280;6800;50.940;6.940;2023-11-21T20:56:38;101608.38;;;15.88;46.48
13456;BME280;6800;50.940;6.940;2023-11-21T21:00:40;101605.00;;;16.13;45.86
13456;BME280;6800;50.940;6.940;2023-11-21T21:04:41;101620.28;;;15.94;46.85
13456;BME280;6800;50.940;6.940;2023-11-21T21:08:44;101626.09;;;15.44;47.04
13456;BME280;6800;50.940;6.940;2023-11-21T21:12:46;101630.78;;;15.39;47.51
13456;BME280;6800;50.940;6.940;2023-11-21T21:16:47;101631.22;;;15.74;46.89
13456;BME280;6800;50.940;6.940;2023-11-21T21:20:49;101636.84;;;16.22;45.20
13456;BME280;6800;50.940;6.940;2023-11-21T21:24:52;101635.13;;;16.09;45.48
13456;BME280;6800;50.940;6.940;2023-11-21T21:28:54;101625.88;;;15.19;48.22
13456;BME280;6800;50.940;6.940;2023-11-21T21:32:57;101634.66;;;14.75;48.91
13456;BME280;6800;50.940;6.940;2023-11-21T21:37:01;101637.34;;;14.74;48.96